createdAt,value
2022-08-19T00:04:49.606Z,22.44
2022-08-19T00:09:54.788Z,22.41
2022-08-19T00:15:00.645Z,22.39
2022-08-19T00:20:04.759Z,22.31
2022-08-19T00:25:10.304Z,22.44
2022-08-19T00:30:14.379Z,22.38
2022-08-19T00:35:18.489Z,22.28
2022-08-19T00:40:23.827Z,22.24
2022-08-19T00:45:33.339Z,22.25
2022-08-19T00:50:52.280Z,22.01
2022-08-19T00:56:00.320Z,22.05
2022-08-19T01:01:03.943Z,22.05
2022-08-19T01:06:08.272Z,21.83
2022-08-19T01:11:14.549Z,21.89
2022-08-19T01:16:21.333Z,21.69
2022-08-19T01:21:31.203Z,21.77
2022-08-19T01:26:40.507Z,21.82
2022-08-19T01:31:45.762Z,21.75
2022-08-19T01:36:50.252Z,21.70
2022-08-19T01:41:55.388Z,21.55
2022-08-19T01:46:59.456Z,21.53
2022-08-19T01:52:03.634Z,21.42
2022-08-19T01:57:13.033Z,21.51
2022-08-19T02:02:16.506Z,21.44
2022-08-19T02:07:22.094Z,21.27
2022-08-19T02:12:27.066Z,21.25
2022-08-19T02:17:30.930Z,21.16
2022-08-19T02:22:34.613Z,21.10
2022-08-19T02:27:40.210Z,21.04
2022-08-19T02:32:44.403Z,20.92
2022-08-19T02:38:06.132Z,20.95
2022-08-19T02:43:11.333Z,21.01
2022-08-19T02:48:21.441Z,20.96
2022-08-19T02:53:28.559Z,20.98
2022-08-19T02:58:33.419Z,20.97
2022-08-19T03:03:36.989Z,20.95
2022-08-19T03:08:43.767Z,20.91
2022-08-19T03:13:51.540Z,20.85
2022-08-19T03:18:56.077Z,20.96
2022-08-19T03:24:01.457Z,20.80
2022-08-19T03:29:08.641Z,20.82
2022-08-19T03:34:15.073Z,20.85
2022-08-19T03:39:18.880Z,20.82
2022-08-19T03:44:24.385Z,20.72
2022-08-19T03:49:30.014Z,20.89
2022-08-19T03:54:33.352Z,20.93
2022-08-19T03:59:39.566Z,20.87
2022-08-19T04:04:45.508Z,20.85
2022-08-19T04:09:49.341Z,20.99
2022-08-19T04:14:54.071Z,20.83
2022-08-19T04:19:57.388Z,21.01
2022-08-19T04:25:01.101Z,21.12
2022-08-19T04:30:07.486Z,21.35
2022-08-19T04:35:17.452Z,21.86
2022-08-19T04:40:39.464Z,22.18
2022-08-19T04:45:44.666Z,22.42
2022-08-19T04:50:49.773Z,22.38
2022-08-19T04:55:53.571Z,22.57
2022-08-19T05:01:01.047Z,22.58
2022-08-19T05:06:08.489Z,22.67
2022-08-19T05:11:14.856Z,22.98
2022-08-19T05:16:22.182Z,22.81
2022-08-19T05:21:43.386Z,23.26
2022-08-19T05:26:49.609Z,23.34
